Terminal Aerodrome Forecast
Issued by NWS

Home | Current Version | Previous Version | Graphics & Text | Print | Product List | Glossary On
Versions: 1 2 3 4 5 6 7 8 9 10 11 12 13 14 15 16 17
000
FTUS43 KIWX 232300
TAFSBN
TAF
KSBN 232339Z 2400/2424 VRB03KT P6SM FEW025
     FM240200 22007KT P6SM SKC
     FM240900 23012KT P6SM SCT250
     FM241400 21019G27KT 5SM BLSN SCT080
     FM241800 23019G29KT 3SM BLSN BKN050
      TEMPO 2419/2423 1SM -SHSN BLSN OVC025=

USA.gov is the U.S. government's official web portal to all federal, state and local government web resources and services.